sensor_id;sensor_type;location;lat;lon;timestamp;pressure;altitude;pressure_sealevel;temperature;humidity
68366;BME280;55283;51.466;5.478;2023-02-19T00:01:12;101665.41;;;20.26;44.21
68366;BME280;55283;51.466;5.478;2023-02-19T00:03:39;101660.59;;;20.26;44.21
68366;BME280;55283;51.466;5.478;2023-02-19T00:06:06;101659.41;;;20.24;44.38
68366;BME280;55283;51.466;5.478;2023-02-19T00:08:33;101654.66;;;20.21;44.28
68366;BME280;55283;51.466;5.478;2023-02-19T00:11:07;101657.06;;;20.19;44.28
68366;BME280;55283;51.466;5.478;2023-02-19T00:13:37;101658.63;;;20.23;44.26
68366;BME280;55283;51.466;5.478;2023-02-19T00:16:15;101645.53;;;20.17;44.27
68366;BME280;55283;51.466;5.478;2023-02-19T00:18:41;101650.75;;;20.15;44.28
68366;BME280;55283;51.466;5.478;2023-02-19T00:21:07;101659.94;;;20.15;44.18
68366;BME280;55283;51.466;5.478;2023-02-19T00:23:33;101658.31;;;20.18;44.23
68366;BME280;55283;51.466;5.478;2023-02-19T00:26:07;101658.31;;;20.18;44.19
68366;BME280;55283;51.466;5.478;2023-02-19T00:28:33;101671.91;;;20.19;44.39
68366;BME280;55283;51.466;5.478;2023-02-19T00:31:15;101653.50;;;20.18;44.20
68366;BME280;55283;51.466;5.478;2023-02-19T00:33:41;101662.72;;;20.15;44.29
68366;BME280;55283;51.466;5.478;2023-02-19T00:36:06;101655.59;;;20.10;44.11
68366;BME280;55283;51.466;5.478;2023-02-19T00:38:35;101665.91;;;20.17;44.29
68366;BME280;55283;51.466;5.478;2023-02-19T00:41:01;101646.81;;;20.08;44.25
68366;BME280;55283;51.466;5.478;2023-02-19T00:43:44;101649.97;;;20.14;44.28
68366;BME280;55283;51.466;5.478;2023-02-19T00:46:09;101644.41;;;20.10;44.06
68366;BME280;55283;51.466;5.478;2023-02-19T00:48:35;101656.81;;;20.09;44.28
68366;BME280;55283;51.466;5.478;2023-02-19T00:51:00;101657.56;;;20.13;44.33
68366;BME280;55283;51.466;5.478;2023-02-19T00:53:26;101660.72;;;20.16;44.21
68366;BME280;55283;51.466;5.478;2023-02-19T00:55:51;101675.16;;;20.14;44.29
68366;BME280;55283;51.466;5.478;2023-02-19T00:58:16;101665.97;;;20.13;44.29
68366;BME280;55283;51.466;5.478;2023-02-19T01:00:42;101660.38;;;20.13;44.17
68366;BME280;55283;51.466;5.478;2023-02-19T01:03:07;101668.75;;;20.13;44.20
68366;BME280;55283;51.466;5.478;2023-02-19T01:05:32;101665.53;;;20.15;44.16
68366;BME280;55283;51.466;5.478;2023-02-19T01:07:58;101675.59;;;20.09;44.05
68366;BME280;55283;51.466;5.478;2023-02-19T01:10:23;101676.34;;;20.13;44.20
68366;BME280;55283;51.466;5.478;2023-02-19T01:12:48;101663.63;;;20.08;43.95
68366;BME280;55283;51.466;5.478;2023-02-19T01:15:14;101670.34;;;20.15;44.09
68366;BME280;55283;51.466;5.478;2023-02-19T01:17:39;101681.91;;;20.17;44.08
68366;BME280;55283;51.466;5.478;2023-02-19T01:20:05;101678.72;;;20.15;44.25
68366;BME280;55283;51.466;5.478;2023-02-19T01:22:31;101662.56;;;19.99;44.11
68366;BME280;55283;51.466;5.478;2023-02-19T01:24:56;101689.16;;;20.14;44.10
68366;BME280;55283;51.466;5.478;2023-02-19T01:27:21;101689.50;;;20.16;44.11
68366;BME280;55283;51.466;5.478;2023-02-19T01:29:47;101686.34;;;20.14;43.84
68366;BME280;55283;51.466;5.478;2023-02-19T01:32:12;101695.91;;;20.17;43.77
68366;BME280;55283;51.466;5.478;2023-02-19T01:34:38;101692.28;;;20.16;43.89
68366;BME280;55283;51.466;5.478;2023-02-19T01:37:03;101693.13;;;20.17;43.91
68366;BME280;55283;51.466;5.478;2023-02-19T01:39:29;101693.19;;;20.09;44.01
68366;BME280;55283;51.466;5.478;2023-02-19T01:41:55;101694.78;;;20.10;43.88
68366;BME280;55283;51.466;5.478;2023-02-19T01:46:46;101708.31;;;20.16;43.84
68366;BME280;55283;51.466;5.478;2023-02-19T01:49:46;101696.31;;;20.15;43.89
68366;BME280;55283;51.466;5.478;2023-02-19T01:52:23;101709.16;;;20.12;43.60
68366;BME280;55283;51.466;5.478;2023-02-19T01:54:50;101712.78;;;20.09;43.95
68366;BME280;55283;51.466;5.478;2023-02-19T01:57:23;101699.63;;;20.06;43.84
68366;BME280;55283;51.466;5.478;2023-02-19T02:00:02;101693.25;;;20.06;43.97
68366;BME280;55283;51.466;5.478;2023-02-19T02:02:28;101698.78;;;20.09;43.79
68366;BME280;55283;51.466;5.478;2023-02-19T02:04:55;101705.59;;;20.08;43.69
68366;BME280;55283;51.466;5.478;2023-02-19T02:07:22;101700.38;;;20.10;43.80
68366;BME280;55283;51.466;5.478;2023-02-19T02:10:06;101695.59;;;20.07;43.74
68366;BME280;55283;51.466;5.478;2023-02-19T02:12:44;101685.22;;;20.08;43.63
68366;BME280;55283;51.466;5.478;2023-02-19T02:15:10;101692.72;;;20.15;43.70
68366;BME280;55283;51.466;5.478;2023-02-19T02:17:46;101691.50;;;20.16;43.51
68366;BME280;55283;51.466;5.478;2023-02-19T02:20:32;101679.97;;;20.10;43.58
68366;BME280;55283;51.466;5.478;2023-02-19T02:23:18;101691.50;;;20.16;43.58
68366;BME280;55283;51.466;5.478;2023-02-19T02:31:32;101699.56;;;20.10;43.63
68366;BME280;55283;51.466;5.478;2023-02-19T02:34:07;101704.75;;;20.11;43.56
68366;BME280;55283;51.466;5.478;2023-02-19T02:36:39;101708.78;;;20.10;43.67
68366;BME280;55283;51.466;5.478;2023-02-19T02:39:09;101706.00;;;20.10;43.57
68366;BME280;55283;51.466;5.478;2023-02-19T02:41:41;101703.59;;;20.09;43.26
68366;BME280;55283;51.466;5.478;2023-02-19T02:44:08;101696.38;;;20.11;43.49
68366;BME280;55283;51.466;5.478;2023-02-19T02:46:36;101688.44;;;20.06;43.55
68366;BME280;55283;51.466;5.478;2023-02-19T02:49:16;101704.38;;;20.09;43.54
68366;BME280;55283;51.466;5.478;2023-02-19T02:51:46;101702.81;;;20.08;43.59
68366;BME280;55283;51.466;5.478;2023-02-19T02:54:22;101707.22;;;20.06;43.43
68366;BME280;55283;51.466;5.478;2023-02-19T02:57:07;101721.97;;;20.10;43.41
68366;BME280;55283;51.466;5.478;2023-02-19T02:59:37;101723.59;;;20.07;43.66
68366;BME280;55283;51.466;5.478;2023-02-19T03:02:24;101723.59;;;20.07;43.55
68366;BME280;55283;51.466;5.478;2023-02-19T03:08:03;101723.59;;;20.07;43.40
68366;BME280;55283;51.466;5.478;2023-02-19T03:10:35;101721.19;;;20.09;43.39
68366;BME280;55283;51.466;5.478;2023-02-19T03:13:05;101728.41;;;20.07;43.39
68366;BME280;55283;51.466;5.478;2023-02-19T03:15:56;101731.63;;;20.05;43.47
68366;BME280;55283;51.466;5.478;2023-02-19T03:18:45;101736.00;;;20.06;43.36
68366;BME280;55283;51.466;5.478;2023-02-19T03:21:31;101737.59;;;20.07;43.34
68366;BME280;55283;51.466;5.478;2023-02-19T03:23:59;101729.28;;;20.00;43.31
68366;BME280;55283;51.466;5.478;2023-02-19T03:26:44;101725.31;;;19.98;43.44
68366;BME280;55283;51.466;5.478;2023-02-19T03:29:11;101738.41;;;20.04;43.34
68366;BME280;55283;51.466;5.478;2023-02-19T03:32:00;101744.41;;;20.06;43.45
68366;BME280;55283;51.466;5.478;2023-02-19T03:34:34;101743.63;;;20.06;43.57
68366;BME280;55283;51.466;5.478;2023-02-19T03:37:07;101737.19;;;20.09;43.38
68366;BME280;55283;51.466;5.478;2023-02-19T03:39:34;101740.38;;;20.07;43.39
68366;BME280;55283;51.466;5.478;2023-02-19T03:42:28;101734.03;;;20.03;43.20
68366;BME280;55283;51.466;5.478;2023-02-19T03:45:05;101750.00;;;20.06;43.27
68366;BME280;55283;51.466;5.478;2023-02-19T03:47:48;101749.16;;;20.09;43.25
68366;BME280;55283;51.466;5.478;2023-02-19T03:50:48;101745.19;;;20.10;43.17
68366;BME280;55283;51.466;5.478;2023-02-19T03:56:05;101752.41;;;20.08;43.16
68366;BME280;55283;51.466;5.478;2023-02-19T04:01:41;101773.16;;;20.10;43.08
68366;BME280;55283;51.466;5.478;2023-02-19T04:06:35;101761.16;;;20.10;43.06
68366;BME280;55283;51.466;5.478;2023-02-19T04:09:05;101760.81;;;20.04;42.88
68366;BME280;55283;51.466;5.478;2023-02-19T04:11:33;101778.78;;;20.10;42.88
68366;BME280;55283;51.466;5.478;2023-02-19T04:16:27;101796.75;;;20.09;42.98
68366;BME280;55283;51.466;5.478;2023-02-19T04:18:56;101791.16;;;20.09;42.88
68366;BME280;55283;51.466;5.478;2023-02-19T04:21:24;101788.75;;;20.11;42.90
68366;BME280;55283;51.466;5.478;2023-02-19T04:23:52;101791.16;;;20.09;42.80
68366;BME280;55283;51.466;5.478;2023-02-19T04:26:19;101793.13;;;20.12;42.84
68366;BME280;55283;51.466;5.478;2023-02-19T04:28:46;101796.72;;;20.13;42.79
68366;BME280;55283;51.466;5.478;2023-02-19T04:31:11;101793.97;;;20.09;42.74
68366;BME280;55283;51.466;5.478;2023-02-19T04:33:37;101789.56;;;20.08;42.85
68366;BME280;55283;51.466;5.478;2023-02-19T04:36:03;101793.56;;;20.11;42.79
68366;BME280;55283;51.466;5.478;2023-02-19T04:38:28;101799.16;;;20.11;42.81
68366;BME280;55283;51.466;5.478;2023-02-19T04:40:53;101809.91;;;20.12;42.89
68366;BME280;55283;51.466;5.478;2023-02-19T04:43:19;101800.00;;;20.04;42.79
68366;BME280;55283;51.466;5.478;2023-02-19T04:45:44;101832.75;;;20.11;42.81
68366;BME280;55283;51.466;5.478;2023-02-19T04:48:10;101828.75;;;20.08;43.09
68366;BME280;55283;51.466;5.478;2023-02-19T04:50:39;101829.16;;;20.10;43.03
68366;BME280;55283;51.466;5.478;2023-02-19T04:53:05;101841.94;;;20.11;42.84
68366;BME280;55283;51.466;5.478;2023-02-19T04:55:30;101845.13;;;20.10;42.78
68366;BME280;55283;51.466;5.478;2023-02-19T04:57:56;101849.94;;;20.09;42.71
68366;BME280;55283;51.466;5.478;2023-02-19T05:00:21;101842.75;;;20.08;42.88
68366;BME280;55283;51.466;5.478;2023-02-19T05:02:47;101849.16;;;20.09;42.80
68366;BME280;55283;51.466;5.478;2023-02-19T05:05:12;101851.94;;;20.09;42.60
68366;BME280;55283;51.466;5.478;2023-02-19T05:07:38;101855.91;;;20.11;42.79
68366;BME280;55283;51.466;5.478;2023-02-19T05:10:03;101858.72;;;20.11;42.82
68366;BME280;55283;51.466;5.478;2023-02-19T05:12:29;101865.16;;;20.08;42.92
68366;BME280;55283;51.466;5.478;2023-02-19T05:14:55;101870.34;;;20.06;42.69
68366;BME280;55283;51.466;5.478;2023-02-19T05:17:21;101869.97;;;20.08;42.76
68366;BME280;55283;51.466;5.478;2023-02-19T05:19:46;101875.16;;;20.06;42.83
68366;BME280;55283;51.466;5.478;2023-02-19T05:22:11;101886.75;;;20.08;42.73
68366;BME280;55283;51.466;5.478;2023-02-19T05:24:37;101887.53;;;20.08;42.67
68366;BME280;55283;51.466;5.478;2023-02-19T05:27:02;101875.22;;;20.02;42.84
68366;BME280;55283;51.466;5.478;2023-02-19T05:29:30;101882.34;;;20.10;42.64
68366;BME280;55283;51.466;5.478;2023-02-19T05:31:55;101883.53;;;20.09;42.71
68366;BME280;55283;51.466;5.478;2023-02-19T05:34:21;101881.16;;;20.08;42.62
68366;BME280;55283;51.466;5.478;2023-02-19T05:36:46;101869.22;;;20.00;42.64
68366;BME280;55283;51.466;5.478;2023-02-19T05:39:12;101889.94;;;20.06;42.69
68366;BME280;55283;51.466;5.478;2023-02-19T05:41:37;101880.03;;;19.98;42.49
68366;BME280;55283;51.466;5.478;2023-02-19T05:44:03;101896.78;;;20.05;42.64
68366;BME280;55283;51.466;5.478;2023-02-19T05:46:28;101895.56;;;20.06;42.46
68366;BME280;55283;51.466;5.478;2023-02-19T05:48:54;101877.31;;;19.91;42.53
68366;BME280;55283;51.466;5.478;2023-02-19T05:51:22;101892.34;;;20.04;42.46
68366;BME280;55283;51.466;5.478;2023-02-19T05:53:48;101892.34;;;20.04;42.62
68366;BME280;55283;51.466;5.478;2023-02-19T05:58:54;101903.56;;;20.04;42.57
68366;BME280;55283;51.466;5.478;2023-02-19T06:01:23;101898.78;;;20.05;42.47
68366;BME280;55283;51.466;5.478;2023-02-19T06:03:49;101892.81;;;19.99;42.72
68366;BME280;55283;51.466;5.478;2023-02-19T06:06:16;101901.16;;;20.06;42.55
68366;BME280;55283;51.466;5.478;2023-02-19T06:08:42;101894.75;;;20.06;42.45
68366;BME280;55283;51.466;5.478;2023-02-19T06:11:07;101892.78;;;20.03;42.43
68366;BME280;55283;51.466;5.478;2023-02-19T06:13:33;101902.75;;;20.04;42.63
68366;BME280;55283;51.466;5.478;2023-02-19T06:15:58;101894.75;;;20.06;42.50
68366;BME280;55283;51.466;5.478;2023-02-19T06:18:23;101896.38;;;20.03;42.56
68366;BME280;55283;51.466;5.478;2023-02-19T06:20:49;101896.81;;;20.02;42.55
68366;BME280;55283;51.466;5.478;2023-02-19T06:23:14;101907.19;;;20.05;42.55
68366;BME280;55283;51.466;5.478;2023-02-19T06:25:40;101911.94;;;20.04;42.47
68366;BME280;55283;51.466;5.478;2023-02-19T06:28:06;101901.63;;;19.98;42.52
68366;BME280;55283;51.466;5.478;2023-02-19T06:30:33;101918.78;;;20.03;42.67
68366;BME280;55283;51.466;5.478;2023-02-19T06:32:58;101913.25;;;19.96;42.74
68366;BME280;55283;51.466;5.478;2023-02-19T06:35:24;101930.44;;;19.95;43.12
68366;BME280;55283;51.466;5.478;2023-02-19T06:37:49;101927.66;;;19.91;43.35
68366;BME280;55283;51.466;5.478;2023-02-19T06:40:15;101924.09;;;19.87;43.52
68366;BME280;55283;51.466;5.478;2023-02-19T06:42:40;101946.44;;;19.94;43.54
68366;BME280;55283;51.466;5.478;2023-02-19T06:45:06;101939.63;;;19.95;43.23
68366;BME280;55283;51.466;5.478;2023-02-19T06:47:32;101943.63;;;19.94;43.53
68366;BME280;55283;51.466;5.478;2023-02-19T06:49:58;101949.28;;;19.87;43.72
68366;BME280;55283;51.466;5.478;2023-02-19T06:52:24;101957.31;;;19.85;43.62
68366;BME280;55283;51.466;5.478;2023-02-19T06:54:50;101956.13;;;19.82;43.66
68366;BME280;55283;51.466;5.478;2023-02-19T06:57:15;101954.91;;;19.83;43.66
68366;BME280;55283;51.466;5.478;2023-02-19T06:59:40;101954.09;;;19.83;43.43
68366;BME280;55283;51.466;5.478;2023-02-19T07:02:08;101965.69;;;19.85;43.51
68366;BME280;55283;51.466;5.478;2023-02-19T07:04:34;101966.13;;;19.80;43.36
68366;BME280;55283;51.466;5.478;2023-02-19T07:06:59;101952.91;;;19.80;43.13
68366;BME280;55283;51.466;5.478;2023-02-19T07:09:25;101969.25;;;19.89;42.92
68366;BME280;55283;51.466;5.478;2023-02-19T07:11:52;101958.38;;;19.98;42.76
68366;BME280;55283;51.466;5.478;2023-02-19T07:14:18;101969.66;;;19.91;42.69
68366;BME280;55283;51.466;5.478;2023-02-19T07:16:43;101976.47;;;19.90;42.84
68366;BME280;55283;51.466;5.478;2023-02-19T07:19:11;101977.63;;;19.93;42.68
68366;BME280;55283;51.466;5.478;2023-02-19T07:21:37;101982.41;;;19.92;42.76
68366;BME280;55283;51.466;5.478;2023-02-19T07:24:04;101983.56;;;19.98;42.34
68366;BME280;55283;51.466;5.478;2023-02-19T07:26:29;101977.94;;;20.05;42.14
68366;BME280;55283;51.466;5.478;2023-02-19T07:28:55;101980.34;;;20.03;41.95
68366;BME280;55283;51.466;5.478;2023-02-19T07:31:22;101993.88;;;20.12;42.17
68366;BME280;55283;51.466;5.478;2023-02-19T07:33:48;102003.50;;;20.07;42.31
68366;BME280;55283;51.466;5.478;2023-02-19T07:36:15;102018.69;;;20.10;43.25
68366;BME280;55283;51.466;5.478;2023-02-19T07:38:41;102018.28;;;20.11;43.32
68366;BME280;55283;51.466;5.478;2023-02-19T07:41:07;102015.50;;;20.08;43.75
68366;BME280;55283;51.466;5.478;2023-02-19T07:43:34;101999.56;;;19.98;43.71
68366;BME280;55283;51.466;5.478;2023-02-19T07:46:09;102031.16;;;19.98;42.51
68366;BME280;55283;51.466;5.478;2023-02-19T07:48:36;102032.44;;;19.83;41.11
68366;BME280;55283;51.466;5.478;2023-02-19T07:51:03;102044.84;;;19.78;41.94
68366;BME280;55283;51.466;5.478;2023-02-19T07:53:29;102049.28;;;19.76;41.35
68366;BME280;55283;51.466;5.478;2023-02-19T07:55:59;102054.50;;;19.66;40.68
68366;BME280;55283;51.466;5.478;2023-02-19T07:58:25;102057.75;;;19.61;40.90
68366;BME280;55283;51.466;5.478;2023-02-19T08:00:51;102064.53;;;19.53;41.71
68366;BME280;55283;51.466;5.478;2023-02-19T08:03:16;102070.53;;;19.52;42.04
68366;BME280;55283;51.466;5.478;2023-02-19T08:05:42;102068.16;;;19.50;42.18
68366;BME280;55283;51.466;5.478;2023-02-19T08:08:09;102066.56;;;19.45;42.65
68366;BME280;55283;51.466;5.478;2023-02-19T08:10:35;102075.75;;;19.57;43.09
68366;BME280;55283;51.466;5.478;2023-02-19T08:13:20;102071.72;;;19.54;43.01
68366;BME280;55283;51.466;5.478;2023-02-19T08:15:54;102089.31;;;19.62;43.25
68366;BME280;55283;51.466;5.478;2023-02-19T08:18:23;102092.06;;;19.73;43.37
68366;BME280;55283;51.466;5.478;2023-02-19T08:20:49;102095.25;;;19.75;43.34
68366;BME280;55283;51.466;5.478;2023-02-19T08:23:14;102084.88;;;19.72;43.45
68366;BME280;55283;51.466;5.478;2023-02-19T08:25:40;102098.81;;;19.82;42.39
68366;BME280;55283;51.466;5.478;2023-02-19T08:28:08;102090.03;;;19.80;42.80
68366;BME280;55283;51.466;5.478;2023-02-19T08:30:33;102102.00;;;19.84;42.73
68366;BME280;55283;51.466;5.478;2023-02-19T08:33:00;102106.78;;;19.87;42.86
68366;BME280;55283;51.466;5.478;2023-02-19T08:35:26;102109.19;;;19.85;43.00
68366;BME280;55283;51.466;5.478;2023-02-19T08:37:57;102111.19;;;19.85;43.31
68366;BME280;55283;51.466;5.478;2023-02-19T08:40:23;102113.22;;;19.84;43.17
68366;BME280;55283;51.466;5.478;2023-02-19T08:42:49;102109.59;;;19.84;43.13
68366;BME280;55283;51.466;5.478;2023-02-19T08:45:15;102110.78;;;19.86;43.35
68366;BME280;55283;51.466;5.478;2023-02-19T08:47:40;102103.19;;;19.87;43.51
68366;BME280;55283;51.466;5.478;2023-02-19T08:50:06;102111.97;;;19.89;43.40
68366;BME280;55283;51.466;5.478;2023-02-19T08:52:32;102112.75;;;19.89;43.50
68366;BME280;55283;51.466;5.478;2023-02-19T08:54:58;102114.34;;;19.94;43.25
68366;BME280;55283;51.466;5.478;2023-02-19T08:57:23;102125.13;;;19.96;43.54
68366;BME280;55283;51.466;5.478;2023-02-19T08:59:49;102122.72;;;19.98;43.67
68366;BME280;55283;51.466;5.478;2023-02-19T09:02:15;102125.09;;;20.03;43.45
68366;BME280;55283;51.466;5.478;2023-02-19T09:04:41;102128.75;;;19.96;44.13
68366;BME280;55283;51.466;5.478;2023-02-19T09:07:06;102131.09;;;20.01;43.76
68366;BME280;55283;51.466;5.478;2023-02-19T09:09:35;102133.50;;;20.03;43.79
68366;BME280;55283;51.466;5.478;2023-02-19T09:12:04;102149.88;;;20.08;43.82
68366;BME280;55283;51.466;5.478;2023-02-19T09:14:33;102145.88;;;20.05;43.80
68366;BME280;55283;51.466;5.478;2023-02-19T09:16:59;102146.66;;;20.09;43.85
68366;BME280;55283;51.466;5.478;2023-02-19T09:19:25;102135.47;;;20.09;43.92
68366;BME280;55283;51.466;5.478;2023-02-19T09:21:50;102135.09;;;20.04;44.01
68366;BME280;55283;51.466;5.478;2023-02-19T09:24:16;102123.53;;;20.02;43.78
68366;BME280;55283;51.466;5.478;2023-02-19T09:26:41;102136.31;;;20.03;44.11
68366;BME280;55283;51.466;5.478;2023-02-19T09:29:06;102138.25;;;20.09;44.34
68366;BME280;55283;51.466;5.478;2023-02-19T09:31:32;102137.06;;;20.10;44.35
68366;BME280;55283;51.466;5.478;2023-02-19T09:33:59;102137.84;;;20.15;44.23
68366;BME280;55283;51.466;5.478;2023-02-19T09:36:24;102147.44;;;20.13;44.22
68366;BME280;55283;51.466;5.478;2023-02-19T09:38:50;102157.44;;;20.15;44.33
68366;BME280;55283;51.466;5.478;2023-02-19T09:44:20;102158.66;;;20.13;44.38
68366;BME280;55283;51.466;5.478;2023-02-19T09:46:49;102143.47;;;20.07;44.27
68366;BME280;55283;51.466;5.478;2023-02-19T09:51:51;102145.81;;;20.16;44.31
68366;BME280;55283;51.466;5.478;2023-02-19T09:54:26;102149.44;;;20.17;44.65
68366;BME280;55283;51.466;5.478;2023-02-19T09:56:54;102179.78;;;20.22;44.52
68366;BME280;55283;51.466;5.478;2023-02-19T09:59:25;102185.75;;;20.31;44.25
68366;BME280;55283;51.466;5.478;2023-02-19T10:02:10;102194.53;;;20.33;44.04
68366;BME280;55283;51.466;5.478;2023-02-19T10:04:40;102200.13;;;20.33;44.09
68366;BME280;55283;51.466;5.478;2023-02-19T10:07:11;102210.56;;;20.29;44.27
68366;BME280;55283;51.466;5.478;2023-02-19T10:09:36;102213.38;;;20.25;44.46
68366;BME280;55283;51.466;5.478;2023-02-19T10:12:10;102211.38;;;20.26;44.56
68366;BME280;55283;51.466;5.478;2023-02-19T10:14:41;102207.81;;;20.18;44.67
68366;BME280;55283;51.466;5.478;2023-02-19T10:17:18;102209.41;;;20.19;44.49
68366;BME280;55283;51.466;5.478;2023-02-19T10:19:45;102221.78;;;20.22;44.65
68366;BME280;55283;51.466;5.478;2023-02-19T10:22:12;102214.59;;;20.21;44.49
68366;BME280;55283;51.466;5.478;2023-02-19T10:24:40;102220.19;;;20.21;44.20
68366;BME280;55283;51.466;5.478;2023-02-19T10:27:14;102233.78;;;20.19;44.71
68366;BME280;55283;51.466;5.478;2023-02-19T10:29:42;102237.41;;;20.19;44.77
68366;BME280;55283;51.466;5.478;2023-02-19T10:32:26;102230.63;;;20.13;44.85
68366;BME280;55283;51.466;5.478;2023-02-19T10:37:34;102247.78;;;20.26;44.90
68366;BME280;55283;51.466;5.478;2023-02-19T10:40:01;102231.44;;;20.10;45.15
68366;BME280;55283;51.466;5.478;2023-02-19T10:42:27;102268.56;;;20.25;45.07
68366;BME280;55283;51.466;5.478;2023-02-19T10:44:57;102272.59;;;20.24;44.66
68366;BME280;55283;51.466;5.478;2023-02-19T10:47:27;102283.38;;;20.22;45.02
68366;BME280;55283;51.466;5.478;2023-02-19T10:49:58;102271.00;;;20.23;44.97
68366;BME280;55283;51.466;5.478;2023-02-19T10:52:31;102279.00;;;20.28;44.72
68366;BME280;55283;51.466;5.478;2023-02-19T10:55:23;102284.97;;;20.26;44.99
68366;BME280;55283;51.466;5.478;2023-02-19T10:57:49;102284.19;;;20.26;45.06
68366;BME280;55283;51.466;5.478;2023-02-19T11:02:40;102273.00;;;20.22;44.91
68366;BME280;55283;51.466;5.478;2023-02-19T11:07:47;102279.41;;;20.16;45.40
68366;BME280;55283;51.466;5.478;2023-02-19T11:10:39;102277.00;;;20.21;45.29
68366;BME280;55283;51.466;5.478;2023-02-19T11:13:17;102269.81;;;20.20;45.40
68366;BME280;55283;51.466;5.478;2023-02-19T11:15:50;102277.00;;;20.21;45.16
68366;BME280;55283;51.466;5.478;2023-02-19T11:18:35;102282.59;;;20.21;45.47
68366;BME280;55283;51.466;5.478;2023-02-19T11:21:05;102275.41;;;20.20;45.53
68366;BME280;55283;51.466;5.478;2023-02-19T11:23:42;102269.00;;;20.20;45.47
68366;BME280;55283;51.466;5.478;2023-02-19T11:26:31;102262.22;;;20.17;45.56
68366;BME280;55283;51.466;5.478;2023-02-19T11:29:02;102244.59;;;20.24;46.06
68366;BME280;55283;51.466;5.478;2023-02-19T11:31:35;102252.16;;;20.27;46.70
68366;BME280;55283;51.466;5.478;2023-02-19T11:34:02;102260.94;;;20.36;47.15
68366;BME280;55283;51.466;5.478;2023-02-19T11:36:30;102259.31;;;20.42;47.89
68366;BME280;55283;51.466;5.478;2023-02-19T11:41:41;102256.50;;;20.49;46.99
68366;BME280;55283;51.466;5.478;2023-02-19T11:50:11;102262.09;;;20.49;46.99
68366;BME280;55283;51.466;5.478;2023-02-19T11:55:33;102268.91;;;20.52;46.77
68366;BME280;55283;51.466;5.478;2023-02-19T12:01:13;102268.94;;;20.48;46.79
68366;BME280;55283;51.466;5.478;2023-02-19T12:09:25;102264.50;;;20.54;46.50
68366;BME280;55283;51.466;5.478;2023-02-19T12:12:25;102266.47;;;20.54;46.65
68366;BME280;55283;51.466;5.478;2023-02-19T12:20:49;102258.88;;;20.58;46.66
68366;BME280;55283;51.466;5.478;2023-02-19T12:23:48;102230.88;;;20.54;46.46
68366;BME280;55283;51.466;5.478;2023-02-19T12:26:31;102248.44;;;20.62;46.71
68366;BME280;55283;51.466;5.478;2023-02-19T12:35:11;102258.84;;;20.62;46.46
68366;BME280;55283;51.466;5.478;2023-02-19T12:43:10;102268.47;;;20.61;46.49
68366;BME280;55283;51.466;5.478;2023-02-19T12:45:49;102263.66;;;20.61;46.57
68366;BME280;55283;51.466;5.478;2023-02-19T12:50:57;102264.84;;;20.64;46.57
68366;BME280;55283;51.466;5.478;2023-02-19T12:53:34;102254.09;;;20.55;46.69
68366;BME280;55283;51.466;5.478;2023-02-19T12:56:09;102276.03;;;20.67;46.76
68366;BME280;55283;51.466;5.478;2023-02-19T12:58:44;102276.41;;;20.69;46.76
68366;BME280;55283;51.466;5.478;2023-02-19T13:01:18;102272.41;;;20.70;46.85
68366;BME280;55283;51.466;5.478;2023-02-19T13:03:49;102269.59;;;20.70;46.84
68366;BME280;55283;51.466;5.478;2023-02-19T13:06:39;102268.81;;;20.70;46.72
68366;BME280;55283;51.466;5.478;2023-02-19T13:11:41;102288.03;;;20.68;47.06
68366;BME280;55283;51.466;5.478;2023-02-19T13:16:45;102274.84;;;20.65;46.90
68366;BME280;55283;51.466;5.478;2023-02-19T13:19:13;102280.00;;;20.70;46.95
68366;BME280;55283;51.466;5.478;2023-02-19T13:21:39;102296.03;;;20.69;46.68
68366;BME280;55283;51.466;5.478;2023-02-19T13:24:27;102290.47;;;20.66;46.89
68366;BME280;55283;51.466;5.478;2023-02-19T13:30:01;102294.41;;;20.68;46.93
68366;BME280;55283;51.466;5.478;2023-02-19T13:35:22;102298.03;;;20.69;46.78
68366;BME280;55283;51.466;5.478;2023-02-19T13:37:48;102308.84;;;20.67;46.90
68366;BME280;55283;51.466;5.478;2023-02-19T13:40:21;102310.84;;;20.70;46.66
68366;BME280;55283;51.466;5.478;2023-02-19T13:43:04;102316.88;;;20.61;46.46
68366;BME280;55283;51.466;5.478;2023-02-19T13:45:38;102331.22;;;20.74;46.56
68366;BME280;55283;51.466;5.478;2023-02-19T13:48:31;102310.47;;;20.64;47.00
68366;BME280;55283;51.466;5.478;2023-02-19T13:58:57;102362.47;;;20.72;48.04
68366;BME280;55283;51.466;5.478;2023-02-19T14:19:45;102370.88;;;20.65;48.23
68366;BME280;55283;51.466;5.478;2023-02-19T14:25:27;102388.50;;;20.69;48.15
68366;BME280;55283;51.466;5.478;2023-02-19T14:30:24;102374.56;;;20.51;47.62
68366;BME280;55283;51.466;5.478;2023-02-19T14:32:50;102391.72;;;20.64;47.97
68366;BME280;55283;51.466;5.478;2023-02-19T14:35:30;102382.53;;;20.64;47.83
68366;BME280;55283;51.466;5.478;2023-02-19T14:37:57;102386.88;;;20.68;48.12
68366;BME280;55283;51.466;5.478;2023-02-19T14:40:29;102380.09;;;20.62;47.89
68366;BME280;55283;51.466;5.478;2023-02-19T14:42:58;102385.31;;;20.67;47.74
68366;BME280;55283;51.466;5.478;2023-02-19T14:45:26;102382.91;;;20.69;47.63
68366;BME280;55283;51.466;5.478;2023-02-19T14:47:53;102370.13;;;20.57;47.62
68366;BME280;55283;51.466;5.478;2023-02-19T14:50:27;102374.50;;;20.66;47.71
68366;BME280;55283;51.466;5.478;2023-02-19T14:52:56;102368.13;;;20.58;47.65
68366;BME280;55283;51.466;5.478;2023-02-19T14:55:30;102378.91;;;20.67;47.41
68366;BME280;55283;51.466;5.478;2023-02-19T14:57:59;102374.50;;;20.66;47.36
68366;BME280;55283;51.466;5.478;2023-02-19T15:00:33;102378.53;;;20.61;47.13
68366;BME280;55283;51.466;5.478;2023-02-19T15:03:01;102380.91;;;20.63;47.05
68366;BME280;55283;51.466;5.478;2023-02-19T15:05:32;102365.72;;;20.56;47.27